Time;durP1;ratioP1;P1;durP2;ratioP2;P2;SDS_P1;SDS_P2;PMS_P1;PMS_P2;Temp;Humidity;BMP_temperature;BMP_pressure;BME280_temperature;BME280_humidity;BME280_pressure;Samples;Min_cycle;Max_cycle;Signal;HPM_P1;HPM_P2
2022/03/26 00:01:29;;;;;;;19.13;9.73;;;;;;;2.13;73.57;91628.84;4992709;28;20045;-65
2022/03/26 00:03:55;;;;;;;22.77;9.77;;;;;;;1.98;73.87;91597.91;4992613;28;20456;-65
2022/03/26 00:06:21;;;;;;;25.55;12.13;;;;;;;2.04;74.54;91623.19;4992441;28;20048;-65
2022/03/26 00:08:48;;;;;;;19.08;9.77;;;;;;;2.13;74.05;91618.34;4992615;28;20073;-65
2022/03/26 00:11:15;;;;;;;23.17;10.57;;;;;;;2.10;73.99;91607.28;4992516;28;20030;-65
2022/03/26 00:13:40;;;;;;;22.95;11.98;;;;;;;2.09;74.06;91620.66;4992393;28;20072;-65
2022/03/26 00:16:06;;;;;;;21.35;11.18;;;;;;;2.05;74.06;91622.97;4992400;28;20058;-65
2022/03/26 00:18:31;;;;;;;30.50;12.63;;;;;;;2.02;74.59;91615.56;4992391;28;20523;-65
2022/03/26 00:20:57;;;;;;;37.90;16.15;;;;;;;1.99;74.38;91613.41;4992337;28;20034;-65
2022/03/26 00:23:22;;;;;;;43.28;17.70;;;;;;;1.96;75.05;91621.75;4992184;28;20034;-65
2022/03/26 00:25:48;;;;;;;57.17;22.52;;;;;;;1.88;75.26;91618.72;4992307;28;20032;-65
2022/03/26 00:28:13;;;;;;;44.38;15.73;;;;;;;1.87;75.40;91617.94;4992239;28;20408;-65
2022/03/26 00:30:39;;;;;;;59.72;21.73;;;;;;;1.87;75.46;91617.94;4992225;28;20046;-65
2022/03/26 00:33:04;;;;;;;70.28;23.45;;;;;;;1.76;75.87;91611.75;4992034;28;20397;-65
2022/03/26 00:35:30;;;;;;;45.17;15.55;;;;;;;1.77;75.63;91618.59;4990795;28;20129;-65
2022/03/26 00:37:55;;;;;;;43.28;16.35;;;;;;;1.76;76.19;91624.09;4992007;28;20029;-65
2022/03/26 00:40:21;;;;;;;46.72;18.75;;;;;;;1.72;76.41;91622.94;4992052;28;20041;-65
2022/03/26 00:42:46;;;;;;;60.35;22.52;;;;;;;1.67;76.99;91625.50;4991847;28;20038;-65
2022/03/26 00:45:12;;;;;;;36.83;13.52;;;;;;;1.62;77.48;91614.94;4991895;28;20091;-65
2022/03/26 00:47:38;;;;;;;19.90;8.85;;;;;;;1.60;77.14;91611.75;4991956;28;20113;-65
2022/03/26 00:50:04;;;;;;;17.60;8.30;;;;;;;1.59;77.54;91615.41;4991906;28;20226;-65
2022/03/26 00:52:30;;;;;;;21.23;8.80;;;;;;;1.60;77.34;91622.25;4991631;28;20030;-65
2022/03/26 00:54:55;;;;;;;20.40;9.63;;;;;;;1.49;78.13;91624.69;4991879;28;20098;-65
2022/03/26 00:57:21;;;;;;;39.90;12.93;;;;;;;1.58;77.64;91619.03;4991742;28;20018;-65
2022/03/26 00:59:46;;;;;;;42.42;12.38;;;;;;;1.51;78.04;91627.06;4991756;28;20034;-65
2022/03/26 01:02:12;;;;;;;28.85;10.68;;;;;;;1.51;77.76;91621.81;4991900;28;20026;-65
2022/03/26 01:04:38;;;;;;;30.77;11.75;;;;;;;1.59;77.23;91631.16;4991496;28;20041;-65
2022/03/26 01:07:05;;;;;;;21.33;9.40;;;;;;;1.54;76.85;91610.06;4991646;28;20053;-65
2022/03/26 01:09:30;;;;;;;17.88;8.70;;;;;;;1.55;77.76;91614.28;4991712;28;20038;-65
2022/03/26 01:11:55;;;;;;;25.15;10.38;;;;;;;1.63;75.89;91621.75;4991698;28;20113;-65
2022/03/26 01:14:22;;;;;;;28.92;10.93;;;;;;;1.80;75.19;91635.69;4991594;28;20117;-65
2022/03/26 01:16:48;;;;;;;25.52;10.02;;;;;;;1.89;74.06;91638.69;4991575;28;20052;-65
2022/03/26 01:19:14;;;;;;;19.80;8.68;;;;;;;1.90;73.85;91637.69;4991551;28;20492;-65
2022/03/26 01:21:39;;;;;;;21.58;9.25;;;;;;;1.86;73.86;91641.78;4991577;28;20045;-65
2022/03/26 01:24:05;;;;;;;27.17;10.20;;;;;;;1.67;75.93;91634.16;4990095;28;20030;-65
2022/03/26 01:26:31;;;;;;;24.35;9.65;;;;;;;1.75;74.06;91639.03;4991620;28;20034;-65
2022/03/26 01:28:56;;;;;;;19.55;8.80;;;;;;;1.92;73.07;91633.78;4991553;28;20034;-65
2022/03/26 01:31:22;;;;;;;22.85;9.27;;;;;;;1.87;72.89;91646.00;4990196;28;20049;-66
2022/03/26 01:33:49;;;;;;;17.85;8.27;;;;;;;1.87;73.76;91643.38;4991456;28;20033;-65
2022/03/26 01:36:15;;;;;;;27.70;9.00;;;;;;;1.70;74.91;91657.28;4991490;28;20117;-65
2022/03/26 01:38:41;;;;;;;22.80;9.55;;;;;;;1.56;75.90;91644.69;4991482;28;20469;-65
2022/03/26 01:41:07;;;;;;;20.85;7.97;;;;;;;1.52;76.27;91651.47;4991605;28;20023;-65
2022/03/26 01:43:33;;;;;;;15.38;7.38;;;;;;;1.45;76.78;91643.75;4991374;28;20062;-65
2022/03/26 01:45:58;;;;;;;21.73;8.07;;;;;;;1.34;77.44;91658.50;4991433;28;20496;-65
2022/03/26 01:48:24;;;;;;;19.80;8.27;;;;;;;1.33;78.17;91656.13;4991287;28;20405;-65
2022/03/26 01:50:50;;;;;;;28.88;10.23;;;;;;;1.25;78.69;91657.25;4991382;28;20423;-65
2022/03/26 01:53:15;;;;;;;20.20;8.68;;;;;;;1.22;79.13;91649.88;4991250;28;20045;-65
2022/03/26 01:55:41;;;;;;;18.90;8.75;;;;;;;1.22;79.11;91654.31;4991308;28;20412;-65
2022/03/26 01:58:06;;;;;;;19.98;8.65;;;;;;;1.18;79.14;91652.19;4991238;28;20026;-65
2022/03/26 02:00:34;;;;;;;16.48;8.73;;;;;;;1.16;79.53;91651.63;4991239;28;20407;-65
2022/03/26 02:02:59;;;;;;;20.27;9.00;;;;;;;1.15;79.67;91652.66;4991155;28;20420;-65
2022/03/26 02:05:25;;;;;;;18.70;9.20;;;;;;;1.16;79.61;91650.81;4991062;28;20042;-65
2022/03/26 02:07:51;;;;;;;16.45;8.57;;;;;;;1.18;79.45;91659.25;4991232;28;20037;-65
2022/03/26 02:10:19;;;;;;;17.38;9.00;;;;;;;1.04;79.41;91637.75;4992474;28;20026;-65
2022/03/26 02:12:46;;;;;;;18.08;9.52;;;;;;;1.04;80.16;91653.47;4994736;28;20026;-65
2022/03/26 02:15:14;;;;;;;19.05;8.35;;;;;;;0.90;81.27;91654.78;4994703;28;20037;-65
2022/03/26 02:17:39;;;;;;;19.10;9.57;;;;;;;0.79;82.16;91664.28;4994630;28;20041;-65
2022/03/26 02:20:08;;;;;;;22.80;10.15;;;;;;;0.62;83.48;91658.13;4994530;28;20038;-65
2022/03/26 02:22:34;;;;;;;12.73;7.50;;;;;;;0.54;85.39;91666.34;4994366;28;20053;-65
2022/03/26 02:24:59;;;;;;;19.75;9.80;;;;;;;0.44;86.69;91671.38;4994516;28;20038;-65
2022/03/26 02:27:29;;;;;;;26.63;11.98;;;;;;;0.34;87.70;91665.94;4994549;28;20066;-65
2022/03/26 02:29:55;;;;;;;23.80;10.00;;;;;;;0.34;88.66;91673.78;4994513;28;20068;-65
2022/03/26 02:32:22;;;;;;;21.15;8.57;;;;;;;0.38;89.03;91680.16;4994347;28;20062;-65
2022/03/26 02:34:49;;;;;;;27.52;12.70;;;;;;;0.38;88.93;91680.16;4994363;28;20061;-65
2022/03/26 02:37:16;;;;;;;23.90;9.60;;;;;;;0.39;89.05;91689.59;4994142;28;20050;-65
2022/03/26 02:39:42;;;;;;;20.83;9.30;;;;;;;0.38;89.09;91688.00;4994307;28;20101;-65
2022/03/26 02:42:07;;;;;;;19.60;8.88;;;;;;;0.40;89.01;91681.50;4994183;28;20488;-65
2022/03/26 02:44:33;;;;;;;15.18;8.27;;;;;;;0.27;89.30;91672.06;4994204;28;20061;-65
2022/03/26 02:46:58;;;;;;;11.85;7.72;;;;;;;0.28;89.59;91671.03;4994135;28;20101;-65
2022/03/26 02:49:24;;;;;;;20.08;8.55;;;;;;;0.30;89.89;91678.66;4994100;28;20035;-65
2022/03/26 02:51:50;;;;;;;14.73;8.18;;;;;;;0.24;90.62;91682.19;4993998;28;20042;-66
2022/03/26 02:54:18;;;;;;;12.65;7.78;;;;;;;0.15;90.96;91679.09;4994023;28;20030;-65
2022/03/26 02:56:49;;;;;;;14.90;7.95;;;;;;;0.22;90.88;91689.47;4994209;28;20038;-65
2022/03/26 02:59:15;;;;;;;18.50;9.00;;;;;;;0.26;90.87;91688.78;4993948;28;20038;-65
2022/03/26 03:01:41;;;;;;;23.73;10.38;;;;;;;0.25;90.99;91681.97;4993855;28;20043;-65
2022/03/26 03:06:42;;;;;;;16.52;8.95;;;;;;;0.10;91.94;91692.09;4993989;22;20291;-62
2022/03/26 03:09:07;;;;;;;15.00;8.05;;;;;;;0.11;92.32;91688.44;4994052;28;20046;-62
2022/03/26 03:11:34;;;;;;;13.25;7.93;;;;;;;0.18;91.67;91694.38;4993961;28;20030;-62
2022/03/26 03:14:00;;;;;;;13.38;7.40;;;;;;;0.27;90.74;91697.44;4993793;28;20479;-62
2022/03/26 03:16:26;;;;;;;21.48;9.65;;;;;;;0.30;89.50;91691.75;4993566;28;20033;-62
2022/03/26 03:18:51;;;;;;;24.63;10.02;;;;;;;0.28;89.05;91694.59;4994044;28;20089;-62
2022/03/26 03:21:17;;;;;;;21.52;8.32;;;;;;;0.30;88.45;91687.31;4992808;28;20058;-62
2022/03/26 03:23:43;;;;;;;16.40;8.35;;;;;;;0.28;88.68;91685.94;4993542;28;20030;-62
2022/03/26 03:26:09;;;;;;;13.93;8.15;;;;;;;0.27;89.07;91692.19;4993544;28;20038;-62
2022/03/26 03:28:34;;;;;;;17.42;8.57;;;;;;;0.27;89.19;91693.00;4993478;28;20105;-62
2022/03/26 03:30:59;;;;;;;16.95;8.90;;;;;;;0.14;89.89;91690.59;4993413;28;20026;-62
2022/03/26 03:33:25;;;;;;;18.60;8.35;;;;;;;0.18;89.83;91694.38;4997461;28;20399;-61
2022/03/26 03:35:50;;;;;;;18.02;8.73;;;;;;;0.22;89.14;91684.25;4997319;28;20033;-61
2022/03/26 03:38:16;;;;;;;15.82;7.95;;;;;;;0.18;89.79;91685.72;4993253;28;20455;-62
2022/03/26 03:40:41;;;;;;;17.02;7.65;;;;;;;0.20;89.09;91689.72;4993293;28;20023;-62
2022/03/26 03:43:07;;;;;;;14.55;7.82;;;;;;;0.23;87.87;91686.63;4993303;28;20038;-62
2022/03/26 03:45:34;;;;;;;13.85;7.55;;;;;;;0.29;87.52;91690.94;4993377;28;20034;-62
2022/03/26 03:47:59;;;;;;;21.30;8.32;;;;;;;0.24;87.65;91682.97;4993417;28;20038;-62
2022/03/26 03:50:25;;;;;;;14.50;8.43;;;;;;;0.18;88.81;91686.53;4993091;28;20034;-62
2022/03/26 03:52:51;;;;;;;13.57;7.70;;;;;;;0.19;89.28;91688.13;4993099;28;20080;-62
2022/03/26 03:55:17;;;;;;;14.90;8.35;;;;;;;0.14;90.23;91687.19;4993076;28;20030;-62
2022/03/26 03:57:44;;;;;;;14.85;7.88;;;;;;;0.02;91.14;91689.00;4993033;28;20027;-62
2022/03/26 04:00:12;;;;;;;18.58;9.95;;;;;;;0.00;91.22;91691.88;4992979;28;20041;-62
2022/03/26 04:02:37;;;;;;;33.47;13.00;;;;;;;0.11;90.63;91691.06;4993113;28;20030;-62
2022/03/26 04:05:03;;;;;;;19.00;9.32;;;;;;;0.15;89.12;91692.19;4992601;28;20073;-62
2022/03/26 04:07:30;;;;;;;20.40;10.82;;;;;;;0.24;87.83;91688.22;4993299;28;20400;-62
2022/03/26 04:09:55;;;;;;;17.13;9.55;;;;;;;0.42;86.02;91689.91;4992816;28;20022;-62
2022/03/26 04:12:21;;;;;;;19.10;9.35;;;;;;;0.52;84.80;91705.06;4992742;28;20037;-62
2022/03/26 04:14:46;;;;;;;18.15;9.50;;;;;;;0.59;83.49;91698.66;4992604;28;20022;-62
2022/03/26 04:17:12;;;;;;;13.13;7.90;;;;;;;0.62;82.53;91699.22;4992411;28;20022;-62
2022/03/26 04:19:40;;;;;;;16.95;8.98;;;;;;;0.58;82.87;91702.31;4992733;28;20040;-62
2022/03/26 04:22:06;;;;;;;13.70;7.45;;;;;;;0.62;82.42;91702.66;4992510;28;20488;-62
2022/03/26 04:24:32;;;;;;;24.50;9.02;;;;;;;0.63;82.11;91698.19;4992335;28;20057;-62
2022/03/26 04:26:58;;;;;;;18.15;8.88;;;;;;;0.55;82.07;91694.13;4992425;28;20077;-62
2022/03/26 04:29:23;;;;;;;19.98;10.02;;;;;;;0.58;82.28;91699.69;4992357;28;20877;-62
2022/03/26 04:31:48;;;;;;;24.17;11.10;;;;;;;0.60;82.14;91710.72;4992540;28;20096;-62
2022/03/26 04:34:14;;;;;;;19.90;10.65;;;;;;;0.62;82.37;91715.72;4991749;28;20093;-62
2022/03/26 04:36:40;;;;;;;28.95;12.73;;;;;;;0.61;82.19;91711.53;4992144;28;20018;-62
2022/03/26 04:39:05;;;;;;;24.23;13.95;;;;;;;0.64;82.25;91713.72;4992192;28;20030;-62
2022/03/26 04:41:30;;;;;;;31.13;15.40;;;;;;;0.71;82.72;91721.44;4992185;28;20026;-62
2022/03/26 04:43:56;;;;;;;30.70;14.43;;;;;;;0.70;81.45;91720.63;4992140;28;20042;-62
2022/03/26 04:46:22;;;;;;;19.70;11.20;;;;;;;0.78;81.04;91716.84;4991957;28;20026;-62
2022/03/26 04:48:47;;;;;;;17.35;9.48;;;;;;;0.80;80.61;91715.63;4992305;28;20037;-62
2022/03/26 04:51:13;;;;;;;18.75;10.15;;;;;;;0.76;80.50;91716.28;4992046;28;20385;-62
2022/03/26 04:53:39;;;;;;;17.58;9.82;;;;;;;0.76;80.75;91719.72;4992067;28;20030;-62
2022/03/26 04:56:05;;;;;;;16.90;9.10;;;;;;;0.78;81.16;91725.50;4992194;28;20105;-62
2022/03/26 04:58:30;;;;;;;21.83;9.90;;;;;;;0.90;80.28;91728.13;4992092;28;20100;-62
2022/03/26 05:00:56;;;;;;;25.30;10.95;;;;;;;1.20;78.21;91722.69;4992103;28;20041;-62
2022/03/26 05:03:21;;;;;;;53.58;22.08;;;;;;;1.20;77.46;91723.50;4992000;28;20034;-62
2022/03/26 05:05:47;;;;;;;27.15;12.73;;;;;;;1.27;77.15;91726.00;4991801;28;20050;-62
2022/03/26 05:08:12;;;;;;;35.67;19.02;;;;;;;1.35;76.48;91730.06;4991886;28;20027;-62
2022/03/26 05:10:38;;;;;;;25.63;13.63;;;;;;;1.43;75.72;91725.25;4991934;28;20109;-62
2022/03/26 05:13:03;;;;;;;24.52;13.75;;;;;;;1.55;75.36;91719.16;4991935;28;20022;-62
2022/03/26 05:15:29;;;;;;;24.05;12.07;;;;;;;1.86;74.05;91723.91;4992057;28;20046;-62
2022/03/26 05:17:58;;;;;;;21.45;12.15;;;;;;;3.29;68.60;91724.16;4991841;28;20488;-62
2022/03/26 05:20:25;;;;;;;17.48;10.98;;;;;;;5.15;60.78;91725.28;4991851;28;20155;-62
2022/03/26 05:22:52;;;;;;;15.23;9.77;;;;;;;6.48;56.34;91726.50;4991865;28;20027;-62
2022/03/26 05:25:18;;;;;;;20.75;10.98;;;;;;;7.57;52.05;91721.56;4991743;28;20480;-62
2022/03/26 05:27:48;;;;;;;26.52;12.95;;;;;;;8.78;49.40;91724.63;4992104;28;20049;-61
2022/03/26 05:30:15;;;;;;;30.10;15.18;;;;;;;9.38;47.79;91722.47;4992034;28;20034;-61
2022/03/26 05:32:40;;;;;;;21.10;13.43;;;;;;;9.72;46.58;91723.16;4991669;28;20039;-61
2022/03/26 05:35:11;;;;;;;24.67;10.88;;;;;;;10.33;45.62;91719.78;4991592;28;20030;-61
2022/03/26 05:37:41;;;;;;;23.98;12.98;;;;;;;11.42;43.39;91736.47;4991769;28;20031;-61
2022/03/26 05:40:08;;;;;;;21.92;12.45;;;;;;;11.42;42.52;91736.47;4993538;28;20092;-63
2022/03/26 05:42:35;;;;;;;20.67;13.05;;;;;;;12.10;41.50;91735.72;4992786;28;20041;-61
2022/03/26 05:45:03;;;;;;;22.25;12.98;;;;;;;12.12;41.10;91734.34;4992534;28;20045;-61
2022/03/26 05:47:32;;;;;;;29.38;13.65;;;;;;;12.68;40.03;91733.16;4995501;28;20033;-61
2022/03/26 05:49:59;;;;;;;26.35;16.20;;;;;;;13.04;39.82;91735.03;4995414;28;20034;-61
2022/03/26 05:52:25;;;;;;;29.25;14.07;;;;;;;13.79;38.67;91743.06;4995253;28;20480;-61
2022/03/26 05:54:51;;;;;;;26.77;14.10;;;;;;;15.15;37.48;91734.09;4994764;28;20030;-61
2022/03/26 05:57:18;;;;;;;26.30;13.13;;;;;;;15.96;35.85;91743.28;4995084;28;20093;-61
2022/03/26 05:59:44;;;;;;;22.58;13.13;;;;;;;15.96;35.86;91741.38;4995434;28;20403;-62
2022/03/26 06:02:12;;;;;;;36.72;13.45;;;;;;;16.81;34.55;91743.19;4995117;28;20385;-62
2022/03/26 06:04:38;;;;;;;31.33;15.90;;;;;;;16.76;34.23;91752.25;4994814;28;20482;-62
2022/03/26 06:07:04;;;;;;;26.95;15.43;;;;;;;18.03;32.94;91749.13;4994922;28;20022;-62
2022/03/26 06:09:30;;;;;;;24.33;15.80;;;;;;;18.37;32.04;91740.66;4994991;28;20037;-62
2022/03/26 06:11:56;;;;;;;21.02;11.45;;;;;;;18.40;31.92;91748.06;4994946;28;20423;-62
2022/03/26 06:14:22;;;;;;;18.95;12.77;;;;;;;18.00;32.47;91753.28;4993654;28;20049;-62
2022/03/26 06:16:48;;;;;;;25.60;14.07;;;;;;;17.41;33.53;91755.41;4994895;28;20030;-62
2022/03/26 06:19:14;;;;;;;28.50;16.92;;;;;;;18.08;32.19;91746.22;4994906;28;20090;-62
2022/03/26 06:21:39;;;;;;;67.82;27.63;;;;;;;18.06;32.05;91762.72;4994681;28;20038;-62
2022/03/26 06:24:05;;;;;;;32.33;15.27;;;;;;;18.30;31.58;91742.31;4994543;28;20038;-62
2022/03/26 06:26:31;;;;;;;22.30;13.70;;;;;;;17.69;31.97;91750.28;4994465;28;20022;-62
2022/03/26 06:28:58;;;;;;;27.88;13.07;;;;;;;18.89;30.83;91752.66;4994392;28;20109;-61
2022/03/26 06:31:24;;;;;;;30.60;13.55;;;;;;;19.78;30.17;91750.66;4994057;28;20030;-61
2022/03/26 06:33:50;;;;;;;43.95;15.27;;;;;;;20.39;28.80;91753.03;4994282;28;20030;-62
2022/03/26 06:36:16;;;;;;;32.25;13.48;;;;;;;20.28;28.81;91760.84;4994232;28;20504;-62
2022/03/26 06:38:44;;;;;;;23.33;11.63;;;;;;;20.56;28.41;91752.69;4994440;28;20026;-62
2022/03/26 06:41:10;;;;;;;15.77;10.45;;;;;;;17.89;30.07;91752.91;4994681;28;20408;-61
2022/03/26 06:43:37;;;;;;;25.98;12.77;;;;;;;19.49;30.22;91753.66;4994444;28;20412;-61
2022/03/26 06:46:04;;;;;;;164.65;26.42;;;;;;;19.96;29.59;91762.72;4994313;28;20519;-62
2022/03/26 06:48:30;;;;;;;40.53;13.30;;;;;;;20.67;28.86;91757.56;4994190;28;20049;-61
2022/03/26 06:50:57;;;;;;;18.48;9.90;;;;;;;21.69;27.30;91763.72;4994332;28;20030;-62
2022/03/26 06:53:23;;;;;;;39.55;11.77;;;;;;;21.58;27.34;91771.63;4994268;28;20174;-61
2022/03/26 06:55:49;;;;;;;21.92;9.75;;;;;;;19.15;29.13;91780.06;4993746;28;20030;-61
2022/03/26 06:58:14;;;;;;;21.65;9.90;;;;;;;18.69;29.68;91771.34;4994299;28;20526;-61
2022/03/26 07:00:40;;;;;;;20.05;10.70;;;;;;;19.74;29.65;91774.09;4994030;28;20030;-62
2022/03/26 07:03:06;;;;;;;22.05;10.55;;;;;;;19.65;28.60;91770.72;4994050;28;20563;-61
2022/03/26 07:05:32;;;;;;;33.72;13.85;;;;;;;22.23;26.83;91769.06;4992412;28;20046;-62
2022/03/26 07:07:57;;;;;;;44.78;14.05;;;;;;;22.15;26.65;91772.78;4993904;28;20073;-62
2022/03/26 07:10:23;;;;;;;23.35;13.10;;;;;;;22.27;26.27;91774.56;4993938;28;20034;-62
2022/03/26 07:12:49;;;;;;;22.23;11.23;;;;;;;22.80;26.05;91783.63;4993667;28;20034;-62
2022/03/26 07:15:15;;;;;;;18.08;10.38;;;;;;;22.20;26.28;91779.84;4993679;28;20443;-62
2022/03/26 07:17:44;;;;;;;26.08;10.82;;;;;;;22.98;25.61;91783.94;4993675;28;20508;-62
2022/03/26 07:20:11;;;;;;;33.15;11.60;;;;;;;22.69;26.00;91777.22;4993245;28;20054;-61
2022/03/26 07:22:37;;;;;;;20.83;10.60;;;;;;;24.04;24.59;91779.22;4993650;28;20022;-62
2022/03/26 07:25:04;;;;;;;338.98;31.63;;;;;;;23.31;24.60;91775.91;4993577;28;20030;-62
2022/03/26 07:27:31;;;;;;;50.50;13.65;;;;;;;23.45;24.72;91785.41;4993561;28;20026;-62
2022/03/26 07:29:57;;;;;;;26.52;11.65;;;;;;;25.32;23.42;91785.94;4993543;28;20117;-62
2022/03/26 07:32:23;;;;;;;19.38;10.68;;;;;;;23.15;24.29;91782.63;4993326;28;20105;-62
2022/03/26 07:34:48;;;;;;;37.53;13.73;;;;;;;21.85;25.44;91788.03;4993245;28;20034;-62
2022/03/26 07:37:14;;;;;;;38.17;12.52;;;;;;;21.69;26.39;91786.19;4993402;28;20037;-62
2022/03/26 07:39:40;;;;;;;33.05;16.13;;;;;;;23.96;25.23;91785.72;4993286;28;20504;-61
2022/03/26 07:42:07;;;;;;;45.10;17.85;;;;;;;22.52;25.77;91783.91;4993169;28;20026;-62
2022/03/26 07:44:33;;;;;;;53.42;14.77;;;;;;;22.35;25.62;91793.28;4989234;28;20045;-62
2022/03/26 07:46:58;;;;;;;25.85;14.95;;;;;;;21.84;26.11;91787.25;4972569;28;20042;-62
2022/03/26 07:49:24;;;;;;;74.20;19.10;;;;;;;22.98;24.35;91790.13;4973390;28;20034;-62
2022/03/26 07:51:50;;;;;;;35.33;15.68;;;;;;;22.98;24.42;91798.28;4973261;28;20073;-62
2022/03/26 07:54:15;;;;;;;40.88;18.15;;;;;;;23.29;23.99;91794.50;4972803;28;20033;-62
2022/03/26 07:56:41;;;;;;;38.58;23.50;;;;;;;23.52;23.07;91788.25;4971996;28;20130;-62
2022/03/26 07:59:07;;;;;;;49.53;26.00;;;;;;;23.82;23.27;91794.47;4973393;28;20401;-62
2022/03/26 08:01:32;;;;;;;93.70;22.25;;;;;;;23.42;23.45;91797.78;4973291;28;20412;-62
2022/03/26 08:03:58;;;;;;;61.88;17.88;;;;;;;23.59;23.23;91791.84;4973049;28;20034;-61
2022/03/26 08:06:24;;;;;;;17.42;10.48;;;;;;;25.25;22.11;91798.72;4972913;28;20042;-62
2022/03/26 08:08:51;;;;;;;53.17;12.68;;;;;;;25.50;21.56;91801.59;4972089;28;20137;-62
2022/03/26 08:11:16;;;;;;;50.80;12.77;;;;;;;23.87;23.03;91798.81;4973104;28;20034;-62
2022/03/26 08:13:42;;;;;;;29.67;11.27;;;;;;;24.45;22.57;91790.97;4973159;28;20500;-63
2022/03/26 08:16:08;;;;;;;16.50;10.70;;;;;;;23.16;24.18;91786.91;4973286;28;20027;-62
2022/03/26 08:18:35;;;;;;;27.40;11.75;;;;;;;24.61;22.58;91795.38;4972935;28;20047;-62
2022/03/26 08:21:00;;;;;;;46.45;11.95;;;;;;;24.04;22.80;91789.31;4973017;28;20031;-62
2022/03/26 08:23:27;;;;;;;16.70;11.15;;;;;;;24.62;22.52;91797.75;4972535;28;20042;-61
2022/03/26 08:26:29;;;;;;;20.10;11.40;;;;;;;26.53;21.46;91793.97;4972735;28;20118;-61
2022/03/26 08:28:57;;;;;;;19.40;14.87;;;;;;;25.05;22.29;91790.75;4972825;28;20428;-61
2022/03/26 08:31:24;;;;;;;32.55;12.50;;;;;;;24.57;22.73;91789.91;4972743;28;20035;-61
2022/03/26 08:33:51;;;;;;;32.42;12.52;;;;;;;24.64;22.09;91783.78;4972597;28;20420;-61
2022/03/26 08:36:17;;;;;;;24.25;11.90;;;;;;;25.00;22.18;91788.41;4972660;28;20023;-61
2022/03/26 08:38:45;;;;;;;15.98;11.30;;;;;;;25.80;21.67;91785.84;4972244;28;20105;-61
2022/03/26 08:41:15;;;;;;;15.93;10.82;;;;;;;28.65;20.80;91783.19;4972620;28;20085;-62
2022/03/26 08:43:41;;;;;;;30.83;11.82;;;;;;;28.74;20.43;91780.03;4972497;28;20027;-61
2022/03/26 08:46:07;;;;;;;27.25;12.85;;;;;;;23.37;24.27;91768.25;4972419;28;20114;-61
2022/03/26 08:48:33;;;;;;;48.88;14.43;;;;;;;22.79;24.81;91782.06;4972326;28;20118;-61
2022/03/26 08:50:59;;;;;;;23.02;13.73;;;;;;;21.49;25.83;91779.19;4972563;28;20062;-61
2022/03/26 08:53:25;;;;;;;55.42;16.67;;;;;;;20.33;27.53;91770.63;4972041;28;20046;-61
2022/03/26 08:55:52;;;;;;;65.22;16.65;;;;;;;20.44;27.97;91779.03;4972283;28;20101;-61
2022/03/26 08:58:18;;;;;;;20.30;14.07;;;;;;;21.03;26.45;91773.50;4972353;28;20393;-61
2022/03/26 09:00:48;;;;;;;39.40;14.63;;;;;;;19.62;27.35;91774.91;4972326;28;20054;-60
2022/03/26 09:03:23;;;;;;;44.83;22.83;;;;;;;21.43;26.92;91770.53;4972218;28;20026;-60
2022/03/26 09:05:49;;;;;;;127.38;20.90;;;;;;;20.75;26.38;91770.91;4972007;28;20077;-60
2022/03/26 09:08:15;;;;;;;47.53;14.43;;;;;;;21.04;26.70;91771.59;4971177;28;20035;-61
2022/03/26 09:10:41;;;;;;;29.00;13.77;;;;;;;21.57;26.26;91761.16;4989490;28;20084;-61
2022/03/26 09:13:07;;;;;;;43.72;15.43;;;;;;;24.59;23.52;91763.13;4990278;28;20026;-62
2022/03/26 09:15:33;;;;;;;27.23;12.73;;;;;;;25.25;23.25;91764.09;4990411;28;20089;-61
2022/03/26 09:17:59;;;;;;;28.05;12.13;;;;;;;21.88;24.69;91760.22;4990751;28;20038;-60
2022/03/26 09:20:26;;;;;;;20.98;11.77;;;;;;;25.21;22.94;91757.03;4993906;28;20018;-61
2022/03/26 09:22:51;;;;;;;21.05;12.90;;;;;;;26.29;21.69;91754.50;4995217;28;20038;-60
2022/03/26 09:25:18;;;;;;;21.00;11.20;;;;;;;27.93;21.28;91751.81;4993916;28;20477;-60
2022/03/26 09:27:44;;;;;;;21.98;11.63;;;;;;;24.02;23.17;91753.56;4993919;28;20093;-61
2022/03/26 09:30:10;;;;;;;18.00;11.82;;;;;;;24.29;22.58;91751.50;4994034;28;20488;-59
2022/03/26 09:32:35;;;;;;;24.52;14.60;;;;;;;27.04;21.12;91752.72;4992942;28;20026;-59
2022/03/26 09:35:00;;;;;;;35.03;12.07;;;;;;;28.18;20.30;91740.78;4994941;28;20030;-60
2022/03/26 09:37:26;;;;;;;28.70;11.25;;;;;;;23.18;23.29;91743.91;4995126;28;20503;-60
2022/03/26 09:39:51;;;;;;;77.40;16.35;;;;;;;21.38;25.41;91743.75;4995320;28;20132;-60
2022/03/26 09:42:17;;;;;;;38.03;12.38;;;;;;;21.26;25.25;91748.50;4995240;28;20038;-60
2022/03/26 09:44:43;;;;;;;44.95;16.95;;;;;;;21.74;24.53;91734.44;4995647;28;20042;-60
2022/03/26 09:47:09;;;;;;;27.20;11.20;;;;;;;21.87;24.24;91747.84;4995601;28;20037;-60
2022/03/26 09:49:37;;;;;;;18.38;9.35;;;;;;;23.84;22.99;91739.78;4995410;28;20036;-60
2022/03/26 09:52:05;;;;;;;27.20;10.52;;;;;;;23.90;22.49;91746.44;4995301;28;20477;-60
2022/03/26 09:54:31;;;;;;;16.17;10.05;;;;;;;25.54;20.61;91739.72;4995445;28;20041;-60
2022/03/26 09:56:56;;;;;;;15.75;10.02;;;;;;;26.58;20.20;91732.75;4995529;28;20026;-60
2022/03/26 09:59:23;;;;;;;14.88;9.88;;;;;;;27.36;20.06;91727.31;4995166;28;20393;-60
2022/03/26 10:01:49;;;;;;;46.42;12.00;;;;;;;28.00;21.08;91732.66;4994331;28;20034;-62
2022/03/26 10:04:19;;;;;;;28.98;10.43;;;;;;;28.60;19.27;91726.13;4994006;28;20034;-61
2022/03/26 10:06:52;;;;;;;30.30;11.38;;;;;;;24.98;21.42;91727.28;4993800;28;20405;-62
2022/03/26 10:09:38;;;;;;;40.77;11.20;;;;;;;23.95;22.70;91720.84;4992990;28;20026;-61
2022/03/26 10:12:07;;;;;;;11.57;9.18;;;;;;;24.09;23.26;91726.44;4994748;28;20463;-61
2022/03/26 10:14:37;;;;;;;15.15;8.52;;;;;;;24.46;22.51;91718.31;4994603;28;20037;-61
2022/03/26 10:17:26;;;;;;;32.45;10.57;;;;;;;24.62;22.79;91721.56;4995079;28;20022;-62
2022/03/26 10:19:59;;;;;;;47.42;11.00;;;;;;;23.56;24.31;91716.50;4994192;28;20113;-61
2022/03/26 10:22:35;;;;;;;30.20;10.90;;;;;;;24.28;23.31;91711.88;4994141;28;20069;-61
2022/03/26 10:25:09;;;;;;;28.80;10.40;;;;;;;25.29;21.93;91704.97;4993972;28;20034;-61
2022/03/26 10:27:41;;;;;;;18.42;9.30;;;;;;;24.58;23.02;91704.41;4993403;28;20038;-61
2022/03/26 10:30:07;;;;;;;43.63;11.95;;;;;;;23.69;22.97;91703.50;4993465;28;20034;-61
2022/03/26 10:32:41;;;;;;;31.77;12.05;;;;;;;24.88;22.50;91701.53;4993279;28;20034;-61
2022/03/26 10:35:11;;;;;;;27.58;11.55;;;;;;;25.07;22.88;91697.81;4993603;28;20042;-61
2022/03/26 10:37:58;;;;;;;24.10;10.38;;;;;;;24.01;23.89;91705.78;4993836;28;20018;-61
2022/03/26 10:40:23;;;;;;;36.10;13.32;;;;;;;23.96;23.67;91703.38;4993408;28;20033;-61
2022/03/26 10:43:11;;;;;;;30.50;16.90;;;;;;;22.92;25.05;91696.63;4993012;28;20046;-61
2022/03/26 10:45:51;;;;;;;31.80;11.00;;;;;;;21.48;26.57;91697.19;4991430;28;20030;-61
2022/03/26 10:48:23;;;;;;;22.55;10.20;;;;;;;22.04;25.66;91701.31;4992315;28;20484;-60
2022/03/26 10:50:58;;;;;;;44.55;13.35;;;;;;;22.75;24.62;91690.91;4994212;28;20038;-61
2022/03/26 10:53:33;;;;;;;25.40;11.30;;;;;;;22.53;24.55;91684.34;4991908;28;20041;-61
2022/03/26 10:55:59;;;;;;;45.70;13.82;;;;;;;23.67;24.46;91691.41;4989254;28;20030;-60
2022/03/26 10:58:26;;;;;;;28.70;10.98;;;;;;;24.10;24.17;91693.44;4993775;28;20034;-61
2022/03/26 11:00:52;;;;;;;15.98;10.02;;;;;;;24.51;23.09;91688.03;4993912;28;20068;-61
2022/03/26 11:03:17;;;;;;;16.88;9.93;;;;;;;24.04;23.58;91686.81;4993726;28;20050;-61
2022/03/26 11:05:45;;;;;;;20.10;11.20;;;;;;;23.72;23.88;91682.94;4991965;28;20121;-60
2022/03/26 11:08:12;;;;;;;87.88;14.18;;;;;;;23.37;24.02;91681.34;4993604;28;20080;-60
2022/03/26 11:10:38;;;;;;;126.68;17.10;;;;;;;23.12;24.46;91681.00;4993198;28;20504;-61
2022/03/26 11:13:08;;;;;;;166.98;28.77;;;;;;;23.55;24.04;91678.84;4992803;28;20041;-61
2022/03/26 11:15:40;;;;;;;20.23;11.30;;;;;;;22.21;24.63;91671.06;4993018;28;20031;-61
2022/03/26 11:18:31;;;;;;;46.05;15.00;;;;;;;21.75;26.25;91671.00;4993978;28;20029;-61
2022/03/26 11:21:27;;;;;;;21.10;10.55;;;;;;;21.98;25.43;91670.25;4993474;28;20025;-61
2022/03/26 11:24:30;;;;;;;22.33;10.93;;;;;;;22.08;25.18;91670.44;4993549;28;20113;-61
2022/03/26 11:26:59;;;;;;;18.15;12.20;;;;;;;;;;4993484;28;20389;-61